createdAt,value
2022-11-08T00:01:16.188Z,11.90
2022-11-08T00:03:42.870Z,11.90
2022-11-08T00:06:28.362Z,11.90
2022-11-08T00:09:13.807Z,11.90
2022-11-08T00:11:58.934Z,11.90
2022-11-08T00:14:27.829Z,11.90
2022-11-08T00:16:54.664Z,11.90
2022-11-08T00:19:21.657Z,11.90
2022-11-08T00:21:48.508Z,11.80
2022-11-08T00:24:17.727Z,11.80
2022-11-08T00:26:49.208Z,11.80
2022-11-08T00:29:16.012Z,11.80
2022-11-08T00:31:44.635Z,11.80
2022-11-08T00:34:11.413Z,11.80
2022-11-08T00:36:38.158Z,11.80
2022-11-08T00:39:04.974Z,11.80
2022-11-08T00:41:31.743Z,11.80
2022-11-08T00:44:00.621Z,11.80
2022-11-08T00:46:27.317Z,11.80
2022-11-08T00:48:56.480Z,11.80
2022-11-08T00:51:23.252Z,11.80
2022-11-08T00:53:49.999Z,11.70
2022-11-08T00:56:19.436Z,11.70
2022-11-08T00:58:46.240Z,11.70
2022-11-08T01:01:19.244Z,11.70
2022-11-08T01:03:47.197Z,11.70
2022-11-08T01:06:18.508Z,11.70
2022-11-08T01:08:45.800Z,11.70
2022-11-08T01:11:15.726Z,11.70
2022-11-08T01:13:48.652Z,11.70
2022-11-08T01:16:23.477Z,11.70
2022-11-08T01:18:56.842Z,11.60
2022-11-08T01:21:24.896Z,11.70
2022-11-08T01:23:52.152Z,11.70
2022-11-08T01:26:22.483Z,11.70
2022-11-08T01:28:49.391Z,11.60
2022-11-08T01:31:27.529Z,11.60
2022-11-08T01:34:00.902Z,11.60
2022-11-08T01:36:28.761Z,11.60
2022-11-08T01:38:56.896Z,11.60
2022-11-08T01:41:25.561Z,11.50
2022-11-08T01:43:53.352Z,11.50
2022-11-08T01:46:20.136Z,11.50
2022-11-08T01:48:49.258Z,11.60
2022-11-08T01:51:20.645Z,11.50
2022-11-08T01:53:48.246Z,11.50
2022-11-08T01:56:15.906Z,11.60
2022-11-08T01:58:45.653Z,11.50
2022-11-08T02:01:12.942Z,11.50
2022-11-08T02:03:43.695Z,11.60
2022-11-08T02:06:11.831Z,11.50
2022-11-08T02:08:45.267Z,11.50
2022-11-08T02:11:14.727Z,11.50
2022-11-08T02:13:41.602Z,11.50
2022-11-08T02:16:16.751Z,11.50
2022-11-08T02:18:47.996Z,11.50
2022-11-08T02:21:27.690Z,11.50
2022-11-08T02:23:57.201Z,11.50
2022-11-08T02:26:32.740Z,11.50
2022-11-08T02:29:19.838Z,11.50
2022-11-08T02:31:46.658Z,11.50
2022-11-08T02:34:15.919Z,11.50
2022-11-08T02:36:49.484Z,11.50
2022-11-08T02:39:16.341Z,11.40
2022-11-08T02:41:45.369Z,11.40
2022-11-08T02:44:12.270Z,11.50
2022-11-08T02:46:39.226Z,11.40
2022-11-08T02:49:05.954Z,11.40
2022-11-08T02:51:33.005Z,11.40
2022-11-08T02:54:00.698Z,11.40
2022-11-08T02:56:27.351Z,11.40
2022-11-08T02:58:54.130Z,11.40
2022-11-08T03:01:25.826Z,11.40
2022-11-08T03:03:52.702Z,11.40
2022-11-08T03:06:21.864Z,11.40
2022-11-08T03:08:51.010Z,11.40
2022-11-08T03:11:17.841Z,11.40
2022-11-08T03:13:46.823Z,11.40
2022-11-08T03:16:15.902Z,11.40
2022-11-08T03:18:45.060Z,11.40
2022-11-08T03:21:11.871Z,11.40
2022-11-08T03:23:38.808Z,11.40
2022-11-08T03:26:06.419Z,11.40
2022-11-08T03:28:33.182Z,11.40
2022-11-08T03:30:59.984Z,11.40
2022-11-08T03:33:29.164Z,11.40
2022-11-08T03:35:55.873Z,11.40
2022-11-08T03:38:27.021Z,11.40
2022-11-08T03:40:53.856Z,11.30
2022-11-08T03:43:20.603Z,11.40
2022-11-08T03:45:47.486Z,11.30
2022-11-08T03:48:14.415Z,11.30
2022-11-08T03:50:41.431Z,11.30
2022-11-08T03:53:10.716Z,11.30
2022-11-08T03:55:37.582Z,11.30
2022-11-08T03:58:05.637Z,11.20
2022-11-08T04:00:32.487Z,11.30
2022-11-08T04:03:03.722Z,11.20
2022-11-08T04:05:32.487Z,11.20
2022-11-08T04:08:00.873Z,11.20
2022-11-08T04:10:27.735Z,11.20
2022-11-08T04:13:13.244Z,11.20
2022-11-08T04:15:40.256Z,11.20
2022-11-08T04:18:27.944Z,11.10
2022-11-08T04:21:13.401Z,11.10
2022-11-08T04:23:40.192Z,11.10
2022-11-08T04:26:11.880Z,11.10
2022-11-08T04:28:43.767Z,11.10
2022-11-08T04:31:17.617Z,11.10
2022-11-08T04:33:45.059Z,11.10
2022-11-08T04:36:14.886Z,11.10
2022-11-08T04:38:42.027Z,11.00
2022-11-08T04:41:12.985Z,11.00
2022-11-08T04:43:40.011Z,11.00
2022-11-08T04:46:10.134Z,10.90
2022-11-08T04:48:37.252Z,10.90
2022-11-08T04:51:03.965Z,10.90
2022-11-08T04:53:37.871Z,10.90
2022-11-08T04:56:08.617Z,10.90
2022-11-08T04:58:38.872Z,10.90
2022-11-08T05:01:06.497Z,10.90
2022-11-08T05:03:33.754Z,10.90
2022-11-08T05:06:10.030Z,10.90
2022-11-08T05:08:40.610Z,10.90
2022-11-08T05:11:08.839Z,10.80
2022-11-08T05:13:35.858Z,10.80
2022-11-08T05:16:04.305Z,10.80
2022-11-08T05:18:31.932Z,10.80
2022-11-08T05:21:18.392Z,10.80
2022-11-08T05:23:48.109Z,10.80
2022-11-08T05:26:15.881Z,10.80
2022-11-08T05:28:42.656Z,10.80
2022-11-08T05:31:11.881Z,10.80
2022-11-08T05:33:38.604Z,10.80
2022-11-08T05:36:06.931Z,10.70
2022-11-08T05:38:36.661Z,10.70
2022-11-08T05:41:04.444Z,10.70
2022-11-08T05:43:34.088Z,10.70
2022-11-08T05:46:00.829Z,10.70
2022-11-08T05:48:27.665Z,10.60
2022-11-08T05:50:56.445Z,10.60
2022-11-08T05:53:23.191Z,10.60
2022-11-08T05:55:49.920Z,10.60
2022-11-08T05:58:16.664Z,10.60
2022-11-08T06:00:43.313Z,10.60
2022-11-08T06:03:10.125Z,10.60
2022-11-08T06:05:36.887Z,10.60
2022-11-08T06:08:06.078Z,10.60
2022-11-08T06:10:32.732Z,10.60
2022-11-08T06:13:00.996Z,10.50
2022-11-08T06:15:28.031Z,10.50
2022-11-08T06:17:54.758Z,10.50
2022-11-08T06:20:21.578Z,10.50
2022-11-08T06:22:50.759Z,10.50
2022-11-08T06:25:17.565Z,10.50
2022-11-08T06:27:44.286Z,10.50
2022-11-08T06:30:13.455Z,10.50
2022-11-08T06:32:40.218Z,10.50
2022-11-08T06:35:07.131Z,10.50
2022-11-08T06:37:36.345Z,10.50
2022-11-08T06:40:03.327Z,10.50
2022-11-08T06:42:29.985Z,10.50
2022-11-08T06:44:56.736Z,10.50
2022-11-08T06:47:23.436Z,10.50
2022-11-08T06:49:50.108Z,10.50
2022-11-08T06:52:16.792Z,10.50
2022-11-08T06:54:43.846Z,10.50
2022-11-08T06:57:10.485Z,10.50
2022-11-08T06:59:40.069Z,10.50
2022-11-08T07:02:09.638Z,10.50
2022-11-08T07:04:38.556Z,10.50
2022-11-08T07:07:05.282Z,10.50
2022-11-08T07:09:32.066Z,10.50
2022-11-08T07:12:01.302Z,10.50
2022-11-08T07:14:30.409Z,10.50
2022-11-08T07:16:57.076Z,10.50
2022-11-08T07:19:28.675Z,10.60
2022-11-08T07:21:55.319Z,10.60
2022-11-08T07:24:22.011Z,10.60
2022-11-08T07:26:50.712Z,10.60
2022-11-08T07:29:17.456Z,10.60
2022-11-08T07:31:44.200Z,10.60
2022-11-08T07:34:10.934Z,10.70
2022-11-08T07:36:37.590Z,10.70
2022-11-08T07:39:06.813Z,10.70
2022-11-08T07:41:33.803Z,10.70
2022-11-08T07:44:00.662Z,10.70
2022-11-08T07:46:27.371Z,10.80
2022-11-08T07:48:54.106Z,10.80
2022-11-08T07:51:20.874Z,10.80
2022-11-08T07:53:47.737Z,10.90
2022-11-08T07:56:14.511Z,10.90
2022-11-08T07:58:41.353Z,11.00
2022-11-08T08:01:08.040Z,11.00
2022-11-08T08:03:35.352Z,11.00
2022-11-08T08:06:02.183Z,11.00
2022-11-08T08:08:32.059Z,11.10
2022-11-08T08:10:59.927Z,11.10
2022-11-08T08:13:26.824Z,11.10
2022-11-08T08:15:53.668Z,11.20
2022-11-08T08:18:22.673Z,11.20
2022-11-08T08:20:49.438Z,11.20
2022-11-08T08:23:16.335Z,11.30
2022-11-08T08:25:43.214Z,11.40
2022-11-08T08:28:10.219Z,11.40
2022-11-08T08:30:40.772Z,11.40
2022-11-08T08:33:28.049Z,11.40
2022-11-08T08:35:56.305Z,11.50
2022-11-08T08:38:23.041Z,11.50
2022-11-08T08:40:50.199Z,11.60
2022-11-08T08:43:19.680Z,11.60
2022-11-08T08:45:46.852Z,11.70
2022-11-08T08:48:13.880Z,11.70
2022-11-08T08:50:40.765Z,11.80
2022-11-08T08:53:07.823Z,11.90
2022-11-08T08:55:39.815Z,11.90
2022-11-08T08:58:07.804Z,11.90
2022-11-08T09:03:23.805Z,12.00
2022-11-08T09:05:51.631Z,12.10
2022-11-08T09:08:19.851Z,12.10
2022-11-08T09:10:53.165Z,12.20
2022-11-08T09:13:23.578Z,12.20
2022-11-08T09:15:53.119Z,12.30
2022-11-08T09:18:23.264Z,12.30
2022-11-08T09:20:50.886Z,12.40
2022-11-08T09:23:18.760Z,12.40
2022-11-08T09:25:45.840Z,12.40
2022-11-08T09:28:13.123Z,12.50
2022-11-08T09:30:49.630Z,12.50
2022-11-08T09:33:17.048Z,12.60
2022-11-08T09:35:46.500Z,12.60
2022-11-08T09:38:14.361Z,12.60
2022-11-08T09:41:03.088Z,12.70
2022-11-08T09:44:01.344Z,12.70
2022-11-08T09:46:39.496Z,12.70
2022-11-08T09:49:13.720Z,12.80
2022-11-08T09:51:41.857Z,12.80
2022-11-08T09:54:25.139Z,12.90
2022-11-08T09:56:57.538Z,12.90
2022-11-08T09:59:32.736Z,13.00
2022-11-08T10:01:59.944Z,13.00
2022-11-08T10:04:31.987Z,13.10
2022-11-08T10:07:29.146Z,13.20
2022-11-08T10:10:02.016Z,13.20
2022-11-08T10:12:40.570Z,13.30
2022-11-08T10:15:37.458Z,13.40
2022-11-08T10:18:17.216Z,13.40
2022-11-08T10:21:02.090Z,13.40
2022-11-08T10:23:36.779Z,13.50
2022-11-08T10:26:13.278Z,13.50
2022-11-08T10:28:50.265Z,13.60
2022-11-08T10:31:20.852Z,13.60
2022-11-08T10:33:55.445Z,13.70
2022-11-08T10:36:45.728Z,13.70
2022-11-08T10:39:16.224Z,13.70
2022-11-08T10:41:54.215Z,13.80
2022-11-08T10:44:27.857Z,13.80
2022-11-08T10:46:59.479Z,13.80
2022-11-08T10:49:34.152Z,13.90
2022-11-08T10:52:12.585Z,13.90
2022-11-08T10:54:41.534Z,13.90
2022-11-08T10:57:13.218Z,13.90
2022-11-08T10:59:40.546Z,13.90
2022-11-08T11:02:36.206Z,13.90
2022-11-08T11:05:18.440Z,13.90
2022-11-08T11:08:01.544Z,13.90
2022-11-08T11:10:38.044Z,13.90
2022-11-08T11:13:06.306Z,13.90
2022-11-08T11:15:51.454Z,13.90
2022-11-08T11:18:31.114Z,13.90
2022-11-08T11:21:01.816Z,13.90
2022-11-08T11:23:51.202Z,13.90
2022-11-08T11:26:17.990Z,14.00
2022-11-08T11:29:06.853Z,14.00
2022-11-08T11:31:36.646Z,14.10
2022-11-08T11:34:18.853Z,14.10
2022-11-08T11:37:01.840Z,14.10
2022-11-08T11:39:44.204Z,14.10
2022-11-08T11:42:43.774Z,14.20
2022-11-08T11:45:11.074Z,14.20
2022-11-08T11:47:50.312Z,14.30
2022-11-08T11:50:27.883Z,14.30
2022-11-08T11:52:59.319Z,14.30
2022-11-08T11:55:32.214Z,14.30
2022-11-08T11:58:26.548Z,14.40
2022-11-08T12:01:30.872Z,14.40
2022-11-08T12:04:06.797Z,14.40
2022-11-08T12:07:07.220Z,14.50
2022-11-08T12:09:39.738Z,14.60
2022-11-08T12:12:16.966Z,14.60
2022-11-08T12:15:23.700Z,14.60
2022-11-08T12:17:57.194Z,14.70
2022-11-08T12:20:42.243Z,14.70
2022-11-08T12:23:24.527Z,14.70
2022-11-08T12:26:32.853Z,14.80
2022-11-08T12:29:30.007Z,14.80
2022-11-08T12:32:15.550Z,14.90
2022-11-08T12:34:59.193Z,15.00
2022-11-08T12:37:50.267Z,15.00
2022-11-08T12:40:48.859Z,15.00
2022-11-08T12:43:15.642Z,15.10
2022-11-08T12:45:53.873Z,15.10
2022-11-08T12:48:29.918Z,15.10
2022-11-08T12:51:09.527Z,15.10
2022-11-08T12:53:52.462Z,15.10
2022-11-08T12:56:42.094Z,15.10
2022-11-08T12:59:22.699Z,15.10
2022-11-08T13:01:50.568Z,15.20
2022-11-08T13:04:26.301Z,15.10
2022-11-08T13:07:06.040Z,15.10
2022-11-08T13:09:56.480Z,15.10
2022-11-08T13:13:07.066Z,15.20
2022-11-08T13:15:34.200Z,15.20
2022-11-08T13:18:06.785Z,15.10
2022-11-08T13:20:46.317Z,15.10
2022-11-08T13:23:31.007Z,15.10
2022-11-08T13:26:19.358Z,15.10
2022-11-08T13:28:49.040Z,15.20
2022-11-08T13:31:18.369Z,15.20
2022-11-08T13:34:09.766Z,15.20
2022-11-08T13:37:17.939Z,15.30
2022-11-08T13:40:00.264Z,15.30
2022-11-08T13:42:38.684Z,15.30
2022-11-08T13:45:17.536Z,15.30
2022-11-08T13:47:44.258Z,15.40
2022-11-08T13:50:30.166Z,15.30
2022-11-08T13:53:19.273Z,15.30
2022-11-08T13:55:47.800Z,15.30
2022-11-08T13:58:41.109Z,15.30
2022-11-08T14:01:09.402Z,15.30
2022-11-08T14:03:36.219Z,15.30
2022-11-08T14:06:06.137Z,15.20
2022-11-08T14:08:47.894Z,15.30
2022-11-08T14:11:20.446Z,15.20
2022-11-08T14:14:01.992Z,15.20
2022-11-08T14:16:41.143Z,15.20
2022-11-08T14:19:22.490Z,15.20
2022-11-08T14:21:52.084Z,15.20
2022-11-08T14:24:23.645Z,15.20
2022-11-08T14:26:53.117Z,15.20
2022-11-08T14:29:23.338Z,15.20
2022-11-08T14:32:15.137Z,15.20
2022-11-08T14:34:43.241Z,15.10
2022-11-08T14:37:30.493Z,15.10
2022-11-08T14:39:57.314Z,15.10
2022-11-08T14:42:26.531Z,15.10
2022-11-08T14:44:58.855Z,15.00
2022-11-08T14:47:31.405Z,15.00
2022-11-08T14:49:59.550Z,15.00
2022-11-08T14:52:35.102Z,14.90
2022-11-08T14:55:10.931Z,14.90
2022-11-08T14:57:50.564Z,14.90
2022-11-08T15:00:31.741Z,14.90
2022-11-08T15:03:05.407Z,14.80
2022-11-08T15:05:55.132Z,14.80
2022-11-08T15:08:23.400Z,14.80
2022-11-08T15:11:04.230Z,14.70
2022-11-08T15:13:43.660Z,14.70
2022-11-08T15:16:11.186Z,14.70
2022-11-08T15:18:40.244Z,14.60
2022-11-08T15:21:18.317Z,14.60
2022-11-08T15:23:53.409Z,14.60
2022-11-08T15:26:25.679Z,14.50
2022-11-08T15:29:23.589Z,14.50
2022-11-08T15:32:01.637Z,14.50
2022-11-08T15:34:28.821Z,14.40
2022-11-08T15:36:55.696Z,14.40
2022-11-08T15:39:28.032Z,14.40
2022-11-08T15:42:06.685Z,14.40
2022-11-08T15:44:36.179Z,14.40
2022-11-08T15:47:02.992Z,14.40
2022-11-08T15:49:31.978Z,14.30
2022-11-08T15:51:58.833Z,14.30
2022-11-08T15:54:30.188Z,14.30
2022-11-08T15:57:02.016Z,14.30
2022-11-08T15:59:30.257Z,14.20
2022-11-08T16:01:59.720Z,14.20
2022-11-08T16:04:28.152Z,14.20
2022-11-08T16:06:55.576Z,14.20
2022-11-08T16:09:22.376Z,14.20
2022-11-08T16:11:50.031Z,14.20
2022-11-08T16:14:22.576Z,14.20
2022-11-08T16:16:50.062Z,14.10
2022-11-08T16:19:26.045Z,14.10
2022-11-08T16:21:52.992Z,14.10
2022-11-08T16:24:23.999Z,14.10
2022-11-08T16:26:50.893Z,14.10
2022-11-08T16:29:26.595Z,14.10
2022-11-08T16:31:53.345Z,14.10
2022-11-08T16:34:23.415Z,14.00
2022-11-08T16:36:50.286Z,14.00
2022-11-08T16:39:21.165Z,14.00
2022-11-08T16:41:47.997Z,14.00
2022-11-08T16:44:14.887Z,14.00
2022-11-08T16:46:44.962Z,14.00
2022-11-08T16:49:20.520Z,14.00
2022-11-08T16:51:50.107Z,14.00
2022-11-08T16:54:23.873Z,13.90
2022-11-08T16:56:51.768Z,13.90
2022-11-08T16:59:18.599Z,13.90
2022-11-08T17:01:50.696Z,13.90
2022-11-08T17:04:17.554Z,13.90
2022-11-08T17:06:44.374Z,13.90
2022-11-08T17:09:13.664Z,13.80
2022-11-08T17:11:40.816Z,13.80
2022-11-08T17:14:10.336Z,13.80
2022-11-08T17:16:39.334Z,13.80
2022-11-08T17:19:06.186Z,13.80
2022-11-08T17:21:44.648Z,13.80
2022-11-08T17:24:15.721Z,13.80
2022-11-08T17:26:51.162Z,13.80
2022-11-08T17:29:20.434Z,13.80
2022-11-08T17:31:48.002Z,13.80
2022-11-08T17:34:14.994Z,13.80
2022-11-08T17:36:42.216Z,13.70
2022-11-08T17:39:10.930Z,13.70
2022-11-08T17:41:37.812Z,13.70
2022-11-08T17:44:06.767Z,13.70
2022-11-08T17:46:33.565Z,13.70
2022-11-08T17:49:02.689Z,13.70
2022-11-08T17:51:29.515Z,13.60
2022-11-08T17:53:58.530Z,13.60
2022-11-08T17:56:25.293Z,13.60
2022-11-08T17:58:54.438Z,13.60
2022-11-08T18:01:21.338Z,13.60
2022-11-08T18:03:48.268Z,13.60
2022-11-08T18:06:16.441Z,13.50
2022-11-08T18:08:47.733Z,13.60
2022-11-08T18:11:15.234Z,13.50
2022-11-08T18:13:46.320Z,13.50
2022-11-08T18:16:19.085Z,13.50
2022-11-08T18:18:46.591Z,13.50
2022-11-08T18:21:14.454Z,13.50
2022-11-08T18:23:43.277Z,13.50
2022-11-08T18:26:11.205Z,13.40
2022-11-08T18:28:39.321Z,13.50
2022-11-08T18:31:13.955Z,13.40
2022-11-08T18:33:43.988Z,13.40
2022-11-08T18:36:15.055Z,13.40
2022-11-08T18:38:44.668Z,13.40
2022-11-08T18:41:13.921Z,13.40
2022-11-08T18:43:40.892Z,13.40
2022-11-08T18:46:11.418Z,13.40
2022-11-08T18:48:38.572Z,13.40
2022-11-08T18:51:08.578Z,13.40
2022-11-08T18:53:37.570Z,13.40
2022-11-08T18:56:05.058Z,13.40
2022-11-08T18:58:32.078Z,13.40
2022-11-08T19:00:59.208Z,13.30
2022-11-08T19:03:27.334Z,13.30
2022-11-08T19:05:58.773Z,13.30
2022-11-08T19:08:27.117Z,13.30
2022-11-08T19:10:54.813Z,13.30
2022-11-08T19:13:25.743Z,13.30
2022-11-08T19:15:59.456Z,13.30
2022-11-08T19:18:28.026Z,13.30
2022-11-08T19:21:03.667Z,13.30
2022-11-08T19:23:31.008Z,13.30
2022-11-08T19:26:03.034Z,13.30
2022-11-08T19:28:34.783Z,13.30
2022-11-08T19:31:03.740Z,13.30
2022-11-08T19:33:34.534Z,13.30
2022-11-08T19:36:07.024Z,13.30
2022-11-08T19:38:35.681Z,13.30
2022-11-08T19:41:03.746Z,13.30
2022-11-08T19:43:33.711Z,13.30
2022-11-08T19:46:04.756Z,13.30
2022-11-08T19:48:33.726Z,13.30
2022-11-08T19:51:02.102Z,13.30
2022-11-08T19:53:29.479Z,13.20
2022-11-08T19:56:06.273Z,13.30
2022-11-08T19:58:35.100Z,13.20
2022-11-08T20:01:22.390Z,13.30
2022-11-08T20:03:49.480Z,13.30
2022-11-08T20:06:18.755Z,13.30
2022-11-08T20:08:52.824Z,13.30
2022-11-08T20:11:21.984Z,13.30
2022-11-08T20:13:49.058Z,13.30
2022-11-08T20:16:24.109Z,13.30
2022-11-08T20:18:50.909Z,13.30
2022-11-08T20:21:17.951Z,13.30
2022-11-08T20:23:45.863Z,13.30
2022-11-08T20:26:20.681Z,13.30
2022-11-08T20:28:55.858Z,13.30
2022-11-08T20:31:25.910Z,13.30
2022-11-08T20:33:53.867Z,13.30
2022-11-08T20:36:23.555Z,13.20
2022-11-08T20:38:58.338Z,13.20
2022-11-08T20:41:32.447Z,13.20
2022-11-08T20:44:03.657Z,13.20
2022-11-08T20:46:33.187Z,13.20
2022-11-08T20:49:02.526Z,13.20
2022-11-08T20:51:30.710Z,13.20
2022-11-08T20:53:59.096Z,13.20
2022-11-08T20:56:26.896Z,13.20
2022-11-08T20:58:54.066Z,13.20
2022-11-08T21:01:23.468Z,13.20
2022-11-08T21:03:55.213Z,13.20
2022-11-08T21:06:28.239Z,13.20
2022-11-08T21:09:01.843Z,13.20
2022-11-08T21:11:30.767Z,13.20
2022-11-08T21:13:58.032Z,13.20
2022-11-08T21:16:34.974Z,13.20
2022-11-08T21:19:07.655Z,13.20
2022-11-08T21:21:34.565Z,13.20
2022-11-08T21:24:03.456Z,13.20
2022-11-08T21:26:36.335Z,13.20
2022-11-08T21:29:06.512Z,13.20
2022-11-08T21:31:36.109Z,13.20
2022-11-08T21:34:05.068Z,13.20
2022-11-08T21:36:31.829Z,13.20
2022-11-08T21:39:00.781Z,13.10
2022-11-08T21:41:27.561Z,13.10
2022-11-08T21:43:58.322Z,13.10
2022-11-08T21:46:26.470Z,13.10
2022-11-08T21:49:00.121Z,13.10
2022-11-08T21:51:29.253Z,13.10
2022-11-08T21:53:57.787Z,13.10
2022-11-08T21:56:28.128Z,13.10
2022-11-08T21:58:54.875Z,13.10
2022-11-08T22:01:29.885Z,13.10
2022-11-08T22:03:58.504Z,13.10
2022-11-08T22:06:33.279Z,13.10
2022-11-08T22:09:00.158Z,13.10
2022-11-08T22:11:29.194Z,13.10
2022-11-08T22:13:58.075Z,13.10
2022-11-08T22:16:24.790Z,13.10
2022-11-08T22:19:04.666Z,13.10
2022-11-08T22:21:39.352Z,13.10
2022-11-08T22:24:14.391Z,13.10
2022-11-08T22:26:41.579Z,13.10
2022-11-08T22:29:10.732Z,13.10
2022-11-08T22:31:40.598Z,13.10
2022-11-08T22:34:08.704Z,13.00
2022-11-08T22:36:41.262Z,13.00
2022-11-08T22:39:15.772Z,13.00
2022-11-08T22:41:46.736Z,13.00
2022-11-08T22:44:16.383Z,13.00
2022-11-08T22:46:47.224Z,13.00
2022-11-08T22:49:14.660Z,13.00
2022-11-08T22:51:44.554Z,13.00
2022-11-08T22:54:13.624Z,13.00
2022-11-08T22:56:42.609Z,13.10
2022-11-08T22:59:14.193Z,13.10
2022-11-08T23:01:41.002Z,13.10
2022-11-08T23:04:11.350Z,13.10
2022-11-08T23:06:40.115Z,13.10
2022-11-08T23:09:07.251Z,13.10
2022-11-08T23:11:52.491Z,13.10
2022-11-08T23:14:38.365Z,13.10
2022-11-08T23:17:07.324Z,13.10
2022-11-08T23:19:52.653Z,13.10
2022-11-08T23:22:38.010Z,13.00
2022-11-08T23:25:05.238Z,13.00
2022-11-08T23:27:50.661Z,13.00
2022-11-08T23:30:38.008Z,13.00
2022-11-08T23:33:06.822Z,13.00
2022-11-08T23:35:36.301Z,13.00
2022-11-08T23:38:05.512Z,13.00
2022-11-08T23:40:50.855Z,13.00
2022-11-08T23:43:39.627Z,13.00
2022-11-08T23:46:15.251Z,13.00
2022-11-08T23:48:41.994Z,12.90
2022-11-08T23:51:08.733Z,12.90
2022-11-08T23:53:37.164Z,12.90
2022-11-08T23:56:04.667Z,12.90
2022-11-08T23:58:32.578Z,12.90
